sensor_id;sensor_type;location;lat;lon;timestamp;temperature;humidity
70456;DHT22;57916;51.996;5.180;2023-02-23T00:01:24;13.00;73.30
70456;DHT22;57916;51.996;5.180;2023-02-23T00:03:53;13.10;73.30
70456;DHT22;57916;51.996;5.180;2023-02-23T00:06:21;13.10;73.20
70456;DHT22;57916;51.996;5.180;2023-02-23T00:08:48;13.10;73.10
70456;DHT22;57916;51.996;5.180;2023-02-23T00:11:15;13.10;73.00
70456;DHT22;57916;51.996;5.180;2023-02-23T00:13:44;13.10;73.00
70456;DHT22;57916;51.996;5.180;2023-02-23T00:16:14;13.10;73.10
70456;DHT22;57916;51.996;5.180;2023-02-23T00:18:53;13.10;73.10
70456;DHT22;57916;51.996;5.180;2023-02-23T00:21:22;13.10;73.10
70456;DHT22;57916;51.996;5.180;2023-02-23T00:23:58;13.00;73.00
70456;DHT22;57916;51.996;5.180;2023-02-23T00:26:28;13.00;73.00
70456;DHT22;57916;51.996;5.180;2023-02-23T00:28:57;13.00;73.00
70456;DHT22;57916;51.996;5.180;2023-02-23T00:31:26;13.10;73.00
70456;DHT22;57916;51.996;5.180;2023-02-23T00:33:55;13.00;72.90
70456;DHT22;57916;51.996;5.180;2023-02-23T00:36:25;12.90;73.00
70456;DHT22;57916;51.996;5.180;2023-02-23T00:38:54;12.90;73.30
70456;DHT22;57916;51.996;5.180;2023-02-23T00:41:22;12.80;73.40
70456;DHT22;57916;51.996;5.180;2023-02-23T00:43:58;12.70;73.70
70456;DHT22;57916;51.996;5.180;2023-02-23T00:46:28;12.60;73.90
70456;DHT22;57916;51.996;5.180;2023-02-23T00:48:57;12.60;74.10
70456;DHT22;57916;51.996;5.180;2023-02-23T00:51:25;12.50;74.30
70456;DHT22;57916;51.996;5.180;2023-02-23T00:53:53;12.50;74.40
70456;DHT22;57916;51.996;5.180;2023-02-23T00:56:21;12.50;74.40
70456;DHT22;57916;51.996;5.180;2023-02-23T00:58:48;12.60;74.50
70456;DHT22;57916;51.996;5.180;2023-02-23T01:01:16;12.60;74.40
70456;DHT22;57916;51.996;5.180;2023-02-23T01:03:44;12.70;74.40
70456;DHT22;57916;51.996;5.180;2023-02-23T01:06:13;12.70;74.20
70456;DHT22;57916;51.996;5.180;2023-02-23T01:08:43;12.70;74.10
70456;DHT22;57916;51.996;5.180;2023-02-23T01:11:16;12.70;74.10
70456;DHT22;57916;51.996;5.180;2023-02-23T01:13:44;12.70;74.20
70456;DHT22;57916;51.996;5.180;2023-02-23T01:16:16;12.70;74.20
70456;DHT22;57916;51.996;5.180;2023-02-23T01:18:43;12.70;74.20
70456;DHT22;57916;51.996;5.180;2023-02-23T01:21:19;12.60;74.10
70456;DHT22;57916;51.996;5.180;2023-02-23T01:23:46;12.70;74.20
70456;DHT22;57916;51.996;5.180;2023-02-23T01:26:18;12.70;74.20
70456;DHT22;57916;51.996;5.180;2023-02-23T01:28:54;12.70;74.30
70456;DHT22;57916;51.996;5.180;2023-02-23T01:31:24;12.60;74.30
70456;DHT22;57916;51.996;5.180;2023-02-23T01:33:56;12.60;74.30
70456;DHT22;57916;51.996;5.180;2023-02-23T01:36:24;12.60;74.30
70456;DHT22;57916;51.996;5.180;2023-02-23T01:38:51;12.60;74.40
70456;DHT22;57916;51.996;5.180;2023-02-23T01:41:23;12.60;74.30
70456;DHT22;57916;51.996;5.180;2023-02-23T01:46:21;12.70;74.30
70456;DHT22;57916;51.996;5.180;2023-02-23T01:48:48;12.70;74.20
70456;DHT22;57916;51.996;5.180;2023-02-23T01:51:19;12.70;74.10
70456;DHT22;57916;51.996;5.180;2023-02-23T01:53:59;12.80;74.00
70456;DHT22;57916;51.996;5.180;2023-02-23T01:56:33;12.80;73.90
70456;DHT22;57916;51.996;5.180;2023-02-23T01:59:04;12.90;73.90
70456;DHT22;57916;51.996;5.180;2023-02-23T02:01:33;12.90;73.70
70456;DHT22;57916;51.996;5.180;2023-02-23T02:04:01;12.90;73.70
70456;DHT22;57916;51.996;5.180;2023-02-23T02:06:33;12.90;73.60
70456;DHT22;57916;51.996;5.180;2023-02-23T02:09:04;12.90;73.70
70456;DHT22;57916;51.996;5.180;2023-02-23T02:11:33;12.90;73.70
70456;DHT22;57916;51.996;5.180;2023-02-23T02:14:05;12.90;73.80
70456;DHT22;57916;51.996;5.180;2023-02-23T02:26:21;12.90;73.80
70456;DHT22;57916;51.996;5.180;2023-02-23T02:39:42;12.80;73.90
70456;DHT22;57916;51.996;5.180;2023-02-23T02:45:02;12.70;74.30
70456;DHT22;57916;51.996;5.180;2023-02-23T02:53:08;12.60;74.60
70456;DHT22;57916;51.996;5.180;2023-02-23T02:55:40;12.60;74.70
70456;DHT22;57916;51.996;5.180;2023-02-23T02:58:12;12.50;74.90
70456;DHT22;57916;51.996;5.180;2023-02-23T03:00:44;12.50;75.10
70456;DHT22;57916;51.996;5.180;2023-02-23T03:03:39;12.50;75.10
70456;DHT22;57916;51.996;5.180;2023-02-23T03:06:35;12.50;75.20
70456;DHT22;57916;51.996;5.180;2023-02-23T03:09:42;12.50;75.10
70456;DHT22;57916;51.996;5.180;2023-02-23T03:15:38;12.50;75.50
70456;DHT22;57916;51.996;5.180;2023-02-23T03:21:51;12.50;75.20
70456;DHT22;57916;51.996;5.180;2023-02-23T03:24:47;12.50;75.20
70456;DHT22;57916;51.996;5.180;2023-02-23T03:28:08;12.50;75.30
70456;DHT22;57916;51.996;5.180;2023-02-23T03:34:45;12.50;75.30
70456;DHT22;57916;51.996;5.180;2023-02-23T03:37:38;12.50;75.40
70456;DHT22;57916;51.996;5.180;2023-02-23T03:40:32;12.50;75.30
70456;DHT22;57916;51.996;5.180;2023-02-23T03:43:23;12.50;75.20
70456;DHT22;57916;51.996;5.180;2023-02-23T03:46:12;12.60;75.00
70456;DHT22;57916;51.996;5.180;2023-02-23T03:49:01;12.60;75.00
70456;DHT22;57916;51.996;5.180;2023-02-23T03:51:52;12.60;74.90
70456;DHT22;57916;51.996;5.180;2023-02-23T03:54:44;12.60;74.80
70456;DHT22;57916;51.996;5.180;2023-02-23T03:57:34;12.60;74.70
70456;DHT22;57916;51.996;5.180;2023-02-23T04:00:33;12.60;74.80
70456;DHT22;57916;51.996;5.180;2023-02-23T04:03:21;12.60;74.80
70456;DHT22;57916;51.996;5.180;2023-02-23T04:06:11;12.60;74.80
70456;DHT22;57916;51.996;5.180;2023-02-23T04:09:01;12.60;74.90
70456;DHT22;57916;51.996;5.180;2023-02-23T04:12:01;12.70;74.80
70456;DHT22;57916;51.996;5.180;2023-02-23T04:14:59;12.70;74.60
70456;DHT22;57916;51.996;5.180;2023-02-23T04:17:27;12.80;74.50
70456;DHT22;57916;51.996;5.180;2023-02-23T04:19:55;12.80;74.40
70456;DHT22;57916;51.996;5.180;2023-02-23T04:22:23;12.80;74.30
70456;DHT22;57916;51.996;5.180;2023-02-23T04:24:50;12.80;74.20
70456;DHT22;57916;51.996;5.180;2023-02-23T04:27:17;12.80;74.20
70456;DHT22;57916;51.996;5.180;2023-02-23T04:29:44;12.80;74.20
70456;DHT22;57916;51.996;5.180;2023-02-23T04:32:13;12.80;74.10
70456;DHT22;57916;51.996;5.180;2023-02-23T04:34:41;12.80;74.10
70456;DHT22;57916;51.996;5.180;2023-02-23T04:37:09;12.70;74.00
70456;DHT22;57916;51.996;5.180;2023-02-23T04:39:35;12.70;74.00
70456;DHT22;57916;51.996;5.180;2023-02-23T04:42:02;12.70;74.00
70456;DHT22;57916;51.996;5.180;2023-02-23T04:44:29;12.70;74.10
70456;DHT22;57916;51.996;5.180;2023-02-23T04:46:56;12.70;74.20
70456;DHT22;57916;51.996;5.180;2023-02-23T04:49:23;12.60;74.20
70456;DHT22;57916;51.996;5.180;2023-02-23T04:51:50;12.60;74.30
70456;DHT22;57916;51.996;5.180;2023-02-23T04:54:17;12.60;74.40
70456;DHT22;57916;51.996;5.180;2023-02-23T04:56:44;12.50;74.60
70456;DHT22;57916;51.996;5.180;2023-02-23T04:59:10;12.50;74.70
70456;DHT22;57916;51.996;5.180;2023-02-23T05:01:38;12.40;74.80
70456;DHT22;57916;51.996;5.180;2023-02-23T05:04:05;12.40;75.00
70456;DHT22;57916;51.996;5.180;2023-02-23T05:06:32;12.40;75.10
70456;DHT22;57916;51.996;5.180;2023-02-23T05:08:58;12.40;75.20
70456;DHT22;57916;51.996;5.180;2023-02-23T05:11:25;12.40;75.20
70456;DHT22;57916;51.996;5.180;2023-02-23T05:13:53;12.40;75.20
70456;DHT22;57916;51.996;5.180;2023-02-23T05:16:20;12.40;75.20
70456;DHT22;57916;51.996;5.180;2023-02-23T05:18:47;12.40;75.30
70456;DHT22;57916;51.996;5.180;2023-02-23T05:21:15;12.40;75.30
70456;DHT22;57916;51.996;5.180;2023-02-23T05:23:42;12.40;75.30
70456;DHT22;57916;51.996;5.180;2023-02-23T05:26:10;12.40;76.30
70456;DHT22;57916;51.996;5.180;2023-02-23T05:28:40;12.40;75.30
70456;DHT22;57916;51.996;5.180;2023-02-23T05:31:08;12.50;75.20
70456;DHT22;57916;51.996;5.180;2023-02-23T05:33:36;12.50;75.10
70456;DHT22;57916;51.996;5.180;2023-02-23T05:36:12;12.60;74.90
70456;DHT22;57916;51.996;5.180;2023-02-23T05:38:42;12.60;74.70
70456;DHT22;57916;51.996;5.180;2023-02-23T05:41:13;12.70;74.60
70456;DHT22;57916;51.996;5.180;2023-02-23T05:43:40;12.70;74.40
70456;DHT22;57916;51.996;5.180;2023-02-23T05:46:14;12.70;74.30
70456;DHT22;57916;51.996;5.180;2023-02-23T05:48:42;12.70;74.30
70456;DHT22;57916;51.996;5.180;2023-02-23T05:51:11;12.60;74.30
70456;DHT22;57916;51.996;5.180;2023-02-23T05:53:38;12.60;74.40
70456;DHT22;57916;51.996;5.180;2023-02-23T05:56:07;12.60;74.40
70456;DHT22;57916;51.996;5.180;2023-02-23T05:58:34;12.70;74.50
70456;DHT22;57916;51.996;5.180;2023-02-23T06:01:01;12.70;74.40
70456;DHT22;57916;51.996;5.180;2023-02-23T06:03:27;12.70;74.40
70456;DHT22;57916;51.996;5.180;2023-02-23T06:05:56;12.80;74.30
70456;DHT22;57916;51.996;5.180;2023-02-23T06:08:25;12.80;74.10
70456;DHT22;57916;51.996;5.180;2023-02-23T06:10:52;12.80;74.10
70456;DHT22;57916;51.996;5.180;2023-02-23T06:13:19;12.70;74.10
70456;DHT22;57916;51.996;5.180;2023-02-23T06:15:46;12.70;74.30
70456;DHT22;57916;51.996;5.180;2023-02-23T06:18:15;12.70;74.30
70456;DHT22;57916;51.996;5.180;2023-02-23T06:20:43;12.70;74.30
70456;DHT22;57916;51.996;5.180;2023-02-23T06:23:12;12.70;74.40
70456;DHT22;57916;51.996;5.180;2023-02-23T06:25:42;12.70;74.40
70456;DHT22;57916;51.996;5.180;2023-02-23T06:28:09;12.60;74.40
70456;DHT22;57916;51.996;5.180;2023-02-23T06:30:37;12.60;74.40
70456;DHT22;57916;51.996;5.180;2023-02-23T06:33:04;12.60;74.40
70456;DHT22;57916;51.996;5.180;2023-02-23T06:35:32;12.60;74.40
70456;DHT22;57916;51.996;5.180;2023-02-23T06:38:00;12.60;74.40
70456;DHT22;57916;51.996;5.180;2023-02-23T06:40:27;12.60;74.40
70456;DHT22;57916;51.996;5.180;2023-02-23T06:42:54;12.60;74.40
70456;DHT22;57916;51.996;5.180;2023-02-23T06:45:21;12.60;74.40
70456;DHT22;57916;51.996;5.180;2023-02-23T06:47:48;12.60;74.40
70456;DHT22;57916;51.996;5.180;2023-02-23T06:50:15;12.60;74.40
70456;DHT22;57916;51.996;5.180;2023-02-23T06:52:42;12.60;74.50
70456;DHT22;57916;51.996;5.180;2023-02-23T06:55:09;12.60;74.50
70456;DHT22;57916;51.996;5.180;2023-02-23T06:57:36;12.60;74.40
70456;DHT22;57916;51.996;5.180;2023-02-23T07:00:03;12.70;74.40
70456;DHT22;57916;51.996;5.180;2023-02-23T07:02:30;12.70;74.20
70456;DHT22;57916;51.996;5.180;2023-02-23T07:04:57;12.70;74.10
70456;DHT22;57916;51.996;5.180;2023-02-23T07:07:24;12.80;74.10
70456;DHT22;57916;51.996;5.180;2023-02-23T07:09:51;12.80;74.10
70456;DHT22;57916;51.996;5.180;2023-02-23T07:12:18;12.80;74.00
70456;DHT22;57916;51.996;5.180;2023-02-23T07:14:45;12.80;73.90
70456;DHT22;57916;51.996;5.180;2023-02-23T07:17:12;12.70;73.90
70456;DHT22;57916;51.996;5.180;2023-02-23T07:19:39;12.70;74.10
70456;DHT22;57916;51.996;5.180;2023-02-23T07:22:05;12.70;74.20
70456;DHT22;57916;51.996;5.180;2023-02-23T07:24:32;12.60;74.30
70456;DHT22;57916;51.996;5.180;2023-02-23T07:26:59;12.60;74.40
70456;DHT22;57916;51.996;5.180;2023-02-23T07:29:26;12.60;74.40
70456;DHT22;57916;51.996;5.180;2023-02-23T07:31:56;12.60;74.60
70456;DHT22;57916;51.996;5.180;2023-02-23T07:34:22;12.50;74.70
70456;DHT22;57916;51.996;5.180;2023-02-23T07:36:49;12.50;74.80
70456;DHT22;57916;51.996;5.180;2023-02-23T07:39:16;12.50;75.00
70456;DHT22;57916;51.996;5.180;2023-02-23T07:41:43;12.40;75.10
70456;DHT22;57916;51.996;5.180;2023-02-23T07:44:17;12.40;75.30
70456;DHT22;57916;51.996;5.180;2023-02-23T07:46:44;12.40;75.40
70456;DHT22;57916;51.996;5.180;2023-02-23T07:49:12;12.40;75.50
70456;DHT22;57916;51.996;5.180;2023-02-23T07:51:39;12.50;75.60
70456;DHT22;57916;51.996;5.180;2023-02-23T07:54:07;12.50;75.70
70456;DHT22;57916;51.996;5.180;2023-02-23T07:56:33;12.50;75.60
70456;DHT22;57916;51.996;5.180;2023-02-23T07:59:01;12.60;75.60
70456;DHT22;57916;51.996;5.180;2023-02-23T08:01:28;12.60;75.60
70456;DHT22;57916;51.996;5.180;2023-02-23T08:03:55;12.60;75.70
70456;DHT22;57916;51.996;5.180;2023-02-23T08:06:22;12.60;75.70
70456;DHT22;57916;51.996;5.180;2023-02-23T08:08:49;12.60;75.80
70456;DHT22;57916;51.996;5.180;2023-02-23T08:11:16;12.60;75.90
70456;DHT22;57916;51.996;5.180;2023-02-23T08:13:43;12.60;75.90
70456;DHT22;57916;51.996;5.180;2023-02-23T08:16:10;12.60;75.90
70456;DHT22;57916;51.996;5.180;2023-02-23T08:18:38;12.60;76.00
70456;DHT22;57916;51.996;5.180;2023-02-23T08:21:05;12.60;75.90
70456;DHT22;57916;51.996;5.180;2023-02-23T08:23:32;12.70;76.00
70456;DHT22;57916;51.996;5.180;2023-02-23T08:26:00;12.70;75.90
70456;DHT22;57916;51.996;5.180;2023-02-23T08:28:28;12.70;75.70
70456;DHT22;57916;51.996;5.180;2023-02-23T08:30:55;12.70;75.80
70456;DHT22;57916;51.996;5.180;2023-02-23T08:33:22;12.70;75.70
70456;DHT22;57916;51.996;5.180;2023-02-23T08:35:49;12.70;75.70
70456;DHT22;57916;51.996;5.180;2023-02-23T08:38:19;12.70;75.80
70456;DHT22;57916;51.996;5.180;2023-02-23T08:40:46;12.70;75.70
70456;DHT22;57916;51.996;5.180;2023-02-23T08:43:13;12.70;75.80
70456;DHT22;57916;51.996;5.180;2023-02-23T08:45:39;12.70;75.80
70456;DHT22;57916;51.996;5.180;2023-02-23T08:48:07;12.80;75.60
70456;DHT22;57916;51.996;5.180;2023-02-23T08:50:34;12.80;75.50
70456;DHT22;57916;51.996;5.180;2023-02-23T08:53:01;12.90;75.40
70456;DHT22;57916;51.996;5.180;2023-02-23T08:55:29;12.90;75.20
70456;DHT22;57916;51.996;5.180;2023-02-23T08:57:56;12.90;75.20
70456;DHT22;57916;51.996;5.180;2023-02-23T09:00:24;12.80;75.30
70456;DHT22;57916;51.996;5.180;2023-02-23T09:02:51;12.90;75.40
70456;DHT22;57916;51.996;5.180;2023-02-23T09:05:18;12.80;75.20
70456;DHT22;57916;51.996;5.180;2023-02-23T09:07:45;12.80;75.30
70456;DHT22;57916;51.996;5.180;2023-02-23T09:10:14;12.80;75.40
70456;DHT22;57916;51.996;5.180;2023-02-23T09:12:42;12.70;75.40
70456;DHT22;57916;51.996;5.180;2023-02-23T09:15:09;12.80;75.50
70456;DHT22;57916;51.996;5.180;2023-02-23T09:17:36;12.80;75.60
70456;DHT22;57916;51.996;5.180;2023-02-23T09:20:04;12.90;75.70
70456;DHT22;57916;51.996;5.180;2023-02-23T09:22:31;12.90;75.70
70456;DHT22;57916;51.996;5.180;2023-02-23T09:25:02;13.00;75.70
70456;DHT22;57916;51.996;5.180;2023-02-23T09:27:30;13.00;75.60
70456;DHT22;57916;51.996;5.180;2023-02-23T09:29:57;13.00;75.30
70456;DHT22;57916;51.996;5.180;2023-02-23T09:32:24;13.10;75.40
70456;DHT22;57916;51.996;5.180;2023-02-23T09:34:51;13.10;75.30
70456;DHT22;57916;51.996;5.180;2023-02-23T09:37:18;13.20;75.30
70456;DHT22;57916;51.996;5.180;2023-02-23T09:39:44;13.20;75.20
70456;DHT22;57916;51.996;5.180;2023-02-23T09:48:08;13.30;74.50
70456;DHT22;57916;51.996;5.180;2023-02-23T09:50:37;13.30;74.70
70456;DHT22;57916;51.996;5.180;2023-02-23T09:53:25;13.30;74.40
70456;DHT22;57916;51.996;5.180;2023-02-23T09:55:56;13.30;74.10
70456;DHT22;57916;51.996;5.180;2023-02-23T09:58:29;13.30;74.00
70456;DHT22;57916;51.996;5.180;2023-02-23T10:01:27;13.40;74.00
70456;DHT22;57916;51.996;5.180;2023-02-23T10:04:05;13.40;74.10
70456;DHT22;57916;51.996;5.180;2023-02-23T10:06:33;13.40;74.00
70456;DHT22;57916;51.996;5.180;2023-02-23T10:09:15;13.40;73.90
70456;DHT22;57916;51.996;5.180;2023-02-23T10:11:52;13.40;73.80
70456;DHT22;57916;51.996;5.180;2023-02-23T10:14:39;13.50;74.50
70456;DHT22;57916;51.996;5.180;2023-02-23T10:17:37;13.50;73.50
70456;DHT22;57916;51.996;5.180;2023-02-23T10:20:27;13.50;73.50
70456;DHT22;57916;51.996;5.180;2023-02-23T10:23:06;13.50;73.40
70456;DHT22;57916;51.996;5.180;2023-02-23T10:25:37;13.50;73.40
70456;DHT22;57916;51.996;5.180;2023-02-23T10:28:12;13.50;73.90
70456;DHT22;57916;51.996;5.180;2023-02-23T10:30:41;13.60;73.30
70456;DHT22;57916;51.996;5.180;2023-02-23T10:33:22;13.60;73.40
70456;DHT22;57916;51.996;5.180;2023-02-23T10:35:57;13.60;73.50
70456;DHT22;57916;51.996;5.180;2023-02-23T10:38:39;13.60;73.00
70456;DHT22;57916;51.996;5.180;2023-02-23T10:41:06;13.60;73.00
70456;DHT22;57916;51.996;5.180;2023-02-23T10:43:33;13.70;72.80
70456;DHT22;57916;51.996;5.180;2023-02-23T10:46:00;13.70;72.90
70456;DHT22;57916;51.996;5.180;2023-02-23T10:48:36;13.70;72.60
70456;DHT22;57916;51.996;5.180;2023-02-23T10:51:23;13.70;72.20
70456;DHT22;57916;51.996;5.180;2023-02-23T10:53:51;13.80;72.50
70456;DHT22;57916;51.996;5.180;2023-02-23T10:56:20;13.80;72.60
70456;DHT22;57916;51.996;5.180;2023-02-23T11:01:21;13.90;72.20
70456;DHT22;57916;51.996;5.180;2023-02-23T11:04:11;13.90;71.80
70456;DHT22;57916;51.996;5.180;2023-02-23T11:06:39;13.90;71.80
70456;DHT22;57916;51.996;5.180;2023-02-23T11:14:25;14.00;71.00
70456;DHT22;57916;51.996;5.180;2023-02-23T11:16:55;14.10;71.10
70456;DHT22;57916;51.996;5.180;2023-02-23T11:19:36;14.10;70.60
70456;DHT22;57916;51.996;5.180;2023-02-23T11:22:04;14.10;70.60
70456;DHT22;57916;51.996;5.180;2023-02-23T11:24:33;14.10;70.60
70456;DHT22;57916;51.996;5.180;2023-02-23T11:27:04;14.10;70.50
70456;DHT22;57916;51.996;5.180;2023-02-23T11:29:40;14.10;69.90
70456;DHT22;57916;51.996;5.180;2023-02-23T11:32:18;14.20;69.80
70456;DHT22;57916;51.996;5.180;2023-02-23T11:34:47;14.20;68.90
70456;DHT22;57916;51.996;5.180;2023-02-23T11:37:21;14.30;68.10
70456;DHT22;57916;51.996;5.180;2023-02-23T11:39:57;14.20;68.00
70456;DHT22;57916;51.996;5.180;2023-02-23T11:42:25;14.20;67.70
70456;DHT22;57916;51.996;5.180;2023-02-23T11:47:44;14.30;67.50
70456;DHT22;57916;51.996;5.180;2023-02-23T11:50:34;14.30;67.10
70456;DHT22;57916;51.996;5.180;2023-02-23T11:53:12;14.20;66.90
70456;DHT22;57916;51.996;5.180;2023-02-23T11:55:49;14.20;67.50
70456;DHT22;57916;51.996;5.180;2023-02-23T11:58:27;14.20;68.20
70456;DHT22;57916;51.996;5.180;2023-02-23T12:01:00;14.20;68.10
70456;DHT22;57916;51.996;5.180;2023-02-23T12:03:31;14.10;68.00
70456;DHT22;57916;51.996;5.180;2023-02-23T12:05:58;14.00;68.20
70456;DHT22;57916;51.996;5.180;2023-02-23T12:08:48;14.00;68.40
70456;DHT22;57916;51.996;5.180;2023-02-23T12:11:23;14.00;68.60
70456;DHT22;57916;51.996;5.180;2023-02-23T12:14:01;14.00;68.90
70456;DHT22;57916;51.996;5.180;2023-02-23T12:16:33;14.00;69.40
70456;DHT22;57916;51.996;5.180;2023-02-23T12:19:24;13.90;69.50
70456;DHT22;57916;51.996;5.180;2023-02-23T12:22:11;13.80;69.60
70456;DHT22;57916;51.996;5.180;2023-02-23T12:24:43;13.80;69.80
70456;DHT22;57916;51.996;5.180;2023-02-23T12:27:56;13.80;69.80
70456;DHT22;57916;51.996;5.180;2023-02-23T12:30:22;13.80;70.00
70456;DHT22;57916;51.996;5.180;2023-02-23T12:32:57;13.80;70.00
70456;DHT22;57916;51.996;5.180;2023-02-23T12:38:02;13.70;69.80
70456;DHT22;57916;51.996;5.180;2023-02-23T12:40:34;13.70;70.00
70456;DHT22;57916;51.996;5.180;2023-02-23T12:43:26;13.70;69.60
70456;DHT22;57916;51.996;5.180;2023-02-23T12:46:06;13.70;69.40
70456;DHT22;57916;51.996;5.180;2023-02-23T12:48:42;13.70;69.20
70456;DHT22;57916;51.996;5.180;2023-02-23T12:51:51;13.70;69.70
70456;DHT22;57916;51.996;5.180;2023-02-23T12:54:19;13.70;69.30
70456;DHT22;57916;51.996;5.180;2023-02-23T13:02:37;13.80;68.60
70456;DHT22;57916;51.996;5.180;2023-02-23T13:05:45;13.80;67.50
70456;DHT22;57916;51.996;5.180;2023-02-23T13:08:28;13.70;67.40
70456;DHT22;57916;51.996;5.180;2023-02-23T13:16:47;13.80;68.00
70456;DHT22;57916;51.996;5.180;2023-02-23T13:19:47;13.90;67.90
70456;DHT22;57916;51.996;5.180;2023-02-23T13:23:09;13.90;68.10
70456;DHT22;57916;51.996;5.180;2023-02-23T13:25:45;14.00;68.00
70456;DHT22;57916;51.996;5.180;2023-02-23T13:28:31;14.10;67.80
70456;DHT22;57916;51.996;5.180;2023-02-23T13:30:59;14.20;67.40
70456;DHT22;57916;51.996;5.180;2023-02-23T13:33:30;14.20;66.30
70456;DHT22;57916;51.996;5.180;2023-02-23T13:36:10;14.20;67.20
70456;DHT22;57916;51.996;5.180;2023-02-23T13:47:44;14.40;66.50
70456;DHT22;57916;51.996;5.180;2023-02-23T13:50:20;14.40;67.00
70456;DHT22;57916;51.996;5.180;2023-02-23T13:52:52;14.40;66.40
70456;DHT22;57916;51.996;5.180;2023-02-23T13:58:15;14.40;66.30
70456;DHT22;57916;51.996;5.180;2023-02-23T14:00:42;14.40;65.90
70456;DHT22;57916;51.996;5.180;2023-02-23T14:03:22;14.40;65.70
70456;DHT22;57916;51.996;5.180;2023-02-23T14:05:54;14.30;65.80
70456;DHT22;57916;51.996;5.180;2023-02-23T14:08:37;14.30;66.00
70456;DHT22;57916;51.996;5.180;2023-02-23T14:11:05;14.20;66.10
70456;DHT22;57916;51.996;5.180;2023-02-23T14:13:34;14.20;66.60
70456;DHT22;57916;51.996;5.180;2023-02-23T14:19:07;14.10;66.40
70456;DHT22;57916;51.996;5.180;2023-02-23T14:21:58;14.00;66.90
70456;DHT22;57916;51.996;5.180;2023-02-23T14:24:26;14.00;67.60
70456;DHT22;57916;51.996;5.180;2023-02-23T14:29:40;14.00;67.50
70456;DHT22;57916;51.996;5.180;2023-02-23T14:35:08;14.00;67.20
70456;DHT22;57916;51.996;5.180;2023-02-23T14:37:35;13.90;67.30
70456;DHT22;57916;51.996;5.180;2023-02-23T14:40:21;13.90;67.90
70456;DHT22;57916;51.996;5.180;2023-02-23T14:42:55;14.00;68.00
70456;DHT22;57916;51.996;5.180;2023-02-23T14:45:25;14.00;67.90
70456;DHT22;57916;51.996;5.180;2023-02-23T14:48:11;14.00;68.70
70456;DHT22;57916;51.996;5.180;2023-02-23T14:50:39;14.00;68.00
70456;DHT22;57916;51.996;5.180;2023-02-23T14:53:17;14.00;68.20
70456;DHT22;57916;51.996;5.180;2023-02-23T14:55:45;14.00;68.30
70456;DHT22;57916;51.996;5.180;2023-02-23T14:58:42;13.90;68.40
70456;DHT22;57916;51.996;5.180;2023-02-23T15:01:34;13.90;68.80
70456;DHT22;57916;51.996;5.180;2023-02-23T15:04:13;14.00;68.70
70456;DHT22;57916;51.996;5.180;2023-02-23T15:06:43;13.90;69.00
70456;DHT22;57916;51.996;5.180;2023-02-23T15:09:19;13.90;68.70
70456;DHT22;57916;51.996;5.180;2023-02-23T15:11:49;13.90;69.00
70456;DHT22;57916;51.996;5.180;2023-02-23T15:14:19;13.90;68.90
70456;DHT22;57916;51.996;5.180;2023-02-23T15:16:55;13.90;69.50
70456;DHT22;57916;51.996;5.180;2023-02-23T15:19:24;13.90;69.00
70456;DHT22;57916;51.996;5.180;2023-02-23T15:21:55;13.90;68.70
70456;DHT22;57916;51.996;5.180;2023-02-23T15:24:25;13.90;68.70
70456;DHT22;57916;51.996;5.180;2023-02-23T15:26:54;13.90;68.40
70456;DHT22;57916;51.996;5.180;2023-02-23T15:29:24;13.90;68.40
70456;DHT22;57916;51.996;5.180;2023-02-23T15:31:53;13.90;68.80
70456;DHT22;57916;51.996;5.180;2023-02-23T15:34:25;13.90;69.00
70456;DHT22;57916;51.996;5.180;2023-02-23T15:37:02;14.00;68.80
70456;DHT22;57916;51.996;5.180;2023-02-23T15:39:38;14.00;68.30
70456;DHT22;57916;51.996;5.180;2023-02-23T15:42:12;13.90;68.50
70456;DHT22;57916;51.996;5.180;2023-02-23T15:44:40;13.80;67.90
70456;DHT22;57916;51.996;5.180;2023-02-23T15:47:32;13.80;68.60
70456;DHT22;57916;51.996;5.180;2023-02-23T15:52:49;13.70;68.90
70456;DHT22;57916;51.996;5.180;2023-02-23T15:55:23;13.60;68.80
70456;DHT22;57916;51.996;5.180;2023-02-23T15:57:56;13.50;69.10
70456;DHT22;57916;51.996;5.180;2023-02-23T16:00:31;13.40;69.50
70456;DHT22;57916;51.996;5.180;2023-02-23T16:02:59;13.20;69.70
70456;DHT22;57916;51.996;5.180;2023-02-23T16:05:30;13.10;70.00
70456;DHT22;57916;51.996;5.180;2023-02-23T16:08:24;13.00;70.20
70456;DHT22;57916;51.996;5.180;2023-02-23T16:10:57;12.80;70.00
70456;DHT22;57916;51.996;5.180;2023-02-23T16:13:26;12.70;70.20
70456;DHT22;57916;51.996;5.180;2023-02-23T16:15:54;12.50;70.50
70456;DHT22;57916;51.996;5.180;2023-02-23T16:18:34;12.50;71.10
70456;DHT22;57916;51.996;5.180;2023-02-23T16:21:04;12.40;71.20
70456;DHT22;57916;51.996;5.180;2023-02-23T16:23:36;12.40;71.40
70456;DHT22;57916;51.996;5.180;2023-02-23T16:26:15;12.30;71.40
70456;DHT22;57916;51.996;5.180;2023-02-23T16:28:44;12.30;71.60
70456;DHT22;57916;51.996;5.180;2023-02-23T16:31:13;12.30;71.80
70456;DHT22;57916;51.996;5.180;2023-02-23T16:33:52;12.30;71.70
70456;DHT22;57916;51.996;5.180;2023-02-23T16:36:32;12.40;71.70
70456;DHT22;57916;51.996;5.180;2023-02-23T16:39:02;12.50;71.60
70456;DHT22;57916;51.996;5.180;2023-02-23T16:41:31;12.50;71.30
70456;DHT22;57916;51.996;5.180;2023-02-23T16:44:04;12.50;71.20
70456;DHT22;57916;51.996;5.180;2023-02-23T16:49:28;12.40;71.10
70456;DHT22;57916;51.996;5.180;2023-02-23T16:51:58;12.40;70.90
70456;DHT22;57916;51.996;5.180;2023-02-23T16:54:26;12.30;70.80
70456;DHT22;57916;51.996;5.180;2023-02-23T16:56:53;12.30;70.80
70456;DHT22;57916;51.996;5.180;2023-02-23T16:59:22;12.30;70.90
70456;DHT22;57916;51.996;5.180;2023-02-23T17:01:49;12.20;71.20
70456;DHT22;57916;51.996;5.180;2023-02-23T17:04:17;12.10;71.60
70456;DHT22;57916;51.996;5.180;2023-02-23T17:06:45;12.10;71.90
70456;DHT22;57916;51.996;5.180;2023-02-23T17:09:14;12.00;72.00
70456;DHT22;57916;51.996;5.180;2023-02-23T17:11:41;12.00;72.00
70456;DHT22;57916;51.996;5.180;2023-02-23T17:14:23;12.00;71.80
70456;DHT22;57916;51.996;5.180;2023-02-23T17:16:50;12.00;72.00
70456;DHT22;57916;51.996;5.180;2023-02-23T17:19:17;12.00;72.00
70456;DHT22;57916;51.996;5.180;2023-02-23T17:21:45;12.00;72.00
70456;DHT22;57916;51.996;5.180;2023-02-23T17:24:12;12.00;71.90
70456;DHT22;57916;51.996;5.180;2023-02-23T17:26:39;12.00;72.10
70456;DHT22;57916;51.996;5.180;2023-02-23T17:29:07;12.00;72.20
70456;DHT22;57916;51.996;5.180;2023-02-23T17:31:34;12.00;72.10
70456;DHT22;57916;51.996;5.180;2023-02-23T17:34:03;12.00;72.10
70456;DHT22;57916;51.996;5.180;2023-02-23T17:36:30;12.10;72.10
70456;DHT22;57916;51.996;5.180;2023-02-23T17:38:57;12.00;71.90
70456;DHT22;57916;51.996;5.180;2023-02-23T17:41:24;12.00;71.90
70456;DHT22;57916;51.996;5.180;2023-02-23T17:43:52;12.00;72.10